sensor_id;sensor_type;location;lat;lon;timestamp;temperature;humidity
27384;DHT22;14851;51.166;4.760;2023-04-25T00:01:29;7.80;99.90
27384;DHT22;14851;51.166;4.760;2023-04-25T00:03:57;7.80;99.90
27384;DHT22;14851;51.166;4.760;2023-04-25T00:06:23;7.80;99.90
27384;DHT22;14851;51.166;4.760;2023-04-25T00:08:52;7.80;99.90
27384;DHT22;14851;51.166;4.760;2023-04-25T00:11:19;7.80;99.90
27384;DHT22;14851;51.166;4.760;2023-04-25T00:13:45;7.80;99.90
27384;DHT22;14851;51.166;4.760;2023-04-25T00:16:11;7.80;99.90
27384;DHT22;14851;51.166;4.760;2023-04-25T00:18:41;7.80;99.90
27384;DHT22;14851;51.166;4.760;2023-04-25T00:21:09;7.80;99.90
27384;DHT22;14851;51.166;4.760;2023-04-25T00:23:36;7.70;99.90
27384;DHT22;14851;51.166;4.760;2023-04-25T00:26:02;7.70;99.90
27384;DHT22;14851;51.166;4.760;2023-04-25T00:28:28;7.70;99.90
27384;DHT22;14851;51.166;4.760;2023-04-25T00:30:54;7.70;99.90
27384;DHT22;14851;51.166;4.760;2023-04-25T00:33:22;7.70;99.90
27384;DHT22;14851;51.166;4.760;2023-04-25T00:35:50;7.60;99.90
27384;DHT22;14851;51.166;4.760;2023-04-25T00:38:17;7.60;99.90
27384;DHT22;14851;51.166;4.760;2023-04-25T00:40:43;7.60;99.90
27384;DHT22;14851;51.166;4.760;2023-04-25T00:43:09;7.60;99.90
27384;DHT22;14851;51.166;4.760;2023-04-25T00:45:38;7.60;99.90
27384;DHT22;14851;51.166;4.760;2023-04-25T00:48:05;7.60;99.90
27384;DHT22;14851;51.166;4.760;2023-04-25T00:50:34;7.60;99.90
27384;DHT22;14851;51.166;4.760;2023-04-25T00:53:00;7.60;99.90
27384;DHT22;14851;51.166;4.760;2023-04-25T00:55:27;7.60;99.90
27384;DHT22;14851;51.166;4.760;2023-04-25T00:57:55;7.60;99.90
27384;DHT22;14851;51.166;4.760;2023-04-25T01:00:21;7.60;99.90
27384;DHT22;14851;51.166;4.760;2023-04-25T01:02:48;7.60;99.90
27384;DHT22;14851;51.166;4.760;2023-04-25T01:05:15;7.60;99.90
27384;DHT22;14851;51.166;4.760;2023-04-25T01:07:41;7.60;99.90
27384;DHT22;14851;51.166;4.760;2023-04-25T01:10:07;7.60;99.90
27384;DHT22;14851;51.166;4.760;2023-04-25T01:12:33;7.60;99.90
27384;DHT22;14851;51.166;4.760;2023-04-25T01:14:59;7.60;99.90
27384;DHT22;14851;51.166;4.760;2023-04-25T01:17:25;7.70;99.90
27384;DHT22;14851;51.166;4.760;2023-04-25T01:19:59;7.70;99.90
27384;DHT22;14851;51.166;4.760;2023-04-25T01:22:25;7.70;99.90
27384;DHT22;14851;51.166;4.760;2023-04-25T01:24:54;7.70;99.90
27384;DHT22;14851;51.166;4.760;2023-04-25T01:27:21;7.70;99.90
27384;DHT22;14851;51.166;4.760;2023-04-25T01:29:49;7.70;99.90
27384;DHT22;14851;51.166;4.760;2023-04-25T01:32:16;7.70;99.90
27384;DHT22;14851;51.166;4.760;2023-04-25T01:34:42;7.70;99.90
27384;DHT22;14851;51.166;4.760;2023-04-25T01:37:08;7.70;99.90
27384;DHT22;14851;51.166;4.760;2023-04-25T01:39:34;7.70;99.90
27384;DHT22;14851;51.166;4.760;2023-04-25T01:42:05;7.70;99.90
27384;DHT22;14851;51.166;4.760;2023-04-25T01:44:31;7.70;99.90
27384;DHT22;14851;51.166;4.760;2023-04-25T01:46:57;7.70;99.90
27384;DHT22;14851;51.166;4.760;2023-04-25T01:49:23;7.70;99.90
27384;DHT22;14851;51.166;4.760;2023-04-25T01:51:49;7.70;99.90
27384;DHT22;14851;51.166;4.760;2023-04-25T01:54:18;7.70;99.90
27384;DHT22;14851;51.166;4.760;2023-04-25T01:56:50;7.60;99.90
27384;DHT22;14851;51.166;4.760;2023-04-25T01:59:17;7.60;99.90
27384;DHT22;14851;51.166;4.760;2023-04-25T02:02:06;7.60;99.90
27384;DHT22;14851;51.166;4.760;2023-04-25T02:04:33;7.60;99.90
27384;DHT22;14851;51.166;4.760;2023-04-25T02:06:59;7.60;99.90
27384;DHT22;14851;51.166;4.760;2023-04-25T02:09:33;7.60;99.90
27384;DHT22;14851;51.166;4.760;2023-04-25T02:12:03;7.60;99.90
27384;DHT22;14851;51.166;4.760;2023-04-25T02:14:52;7.60;99.90
27384;DHT22;14851;51.166;4.760;2023-04-25T02:17:37;7.70;99.90
27384;DHT22;14851;51.166;4.760;2023-04-25T02:20:06;7.60;99.90
27384;DHT22;14851;51.166;4.760;2023-04-25T02:22:31;7.60;99.90
27384;DHT22;14851;51.166;4.760;2023-04-25T02:25:02;7.70;99.90
27384;DHT22;14851;51.166;4.760;2023-04-25T02:27:33;7.60;99.90
27384;DHT22;14851;51.166;4.760;2023-04-25T02:29:59;7.60;99.90
27384;DHT22;14851;51.166;4.760;2023-04-25T02:32:25;7.60;99.90
27384;DHT22;14851;51.166;4.760;2023-04-25T02:34:53;7.60;99.90
27384;DHT22;14851;51.166;4.760;2023-04-25T02:37:26;7.60;99.90
27384;DHT22;14851;51.166;4.760;2023-04-25T02:39:51;7.60;99.90
27384;DHT22;14851;51.166;4.760;2023-04-25T02:42:18;7.60;99.90
27384;DHT22;14851;51.166;4.760;2023-04-25T02:44:46;7.60;99.90
27384;DHT22;14851;51.166;4.760;2023-04-25T02:47:12;7.60;99.90
27384;DHT22;14851;51.166;4.760;2023-04-25T02:49:37;7.60;99.90
27384;DHT22;14851;51.166;4.760;2023-04-25T02:52:06;7.60;99.90
27384;DHT22;14851;51.166;4.760;2023-04-25T02:54:32;7.60;99.90
27384;DHT22;14851;51.166;4.760;2023-04-25T02:56:59;7.60;99.90
27384;DHT22;14851;51.166;4.760;2023-04-25T02:59:30;7.60;99.90
27384;DHT22;14851;51.166;4.760;2023-04-25T03:01:56;7.60;99.90
27384;DHT22;14851;51.166;4.760;2023-04-25T03:04:25;7.60;99.90
27384;DHT22;14851;51.166;4.760;2023-04-25T03:06:53;7.60;99.90
27384;DHT22;14851;51.166;4.760;2023-04-25T03:09:22;7.60;99.90
27384;DHT22;14851;51.166;4.760;2023-04-25T03:11:51;7.60;99.90
27384;DHT22;14851;51.166;4.760;2023-04-25T03:14:18;7.60;99.90
27384;DHT22;14851;51.166;4.760;2023-04-25T03:16:46;7.50;99.90
27384;DHT22;14851;51.166;4.760;2023-04-25T03:19:11;7.50;99.90
27384;DHT22;14851;51.166;4.760;2023-04-25T03:21:37;7.50;99.90
27384;DHT22;14851;51.166;4.760;2023-04-25T03:24:04;7.50;99.90
27384;DHT22;14851;51.166;4.760;2023-04-25T03:26:31;7.50;99.90
27384;DHT22;14851;51.166;4.760;2023-04-25T03:28:59;7.50;99.90
27384;DHT22;14851;51.166;4.760;2023-04-25T03:31:24;7.40;99.90
27384;DHT22;14851;51.166;4.760;2023-04-25T03:33:50;7.40;99.90
27384;DHT22;14851;51.166;4.760;2023-04-25T03:36:24;7.40;99.90
27384;DHT22;14851;51.166;4.760;2023-04-25T03:38:50;7.30;99.90
27384;DHT22;14851;51.166;4.760;2023-04-25T03:41:17;7.30;99.90
27384;DHT22;14851;51.166;4.760;2023-04-25T03:43:50;7.30;99.90
27384;DHT22;14851;51.166;4.760;2023-04-25T03:46:16;7.40;99.90
27384;DHT22;14851;51.166;4.760;2023-04-25T03:48:42;7.40;99.90
27384;DHT22;14851;51.166;4.760;2023-04-25T03:51:11;7.30;99.90
27384;DHT22;14851;51.166;4.760;2023-04-25T03:53:41;7.30;99.90
27384;DHT22;14851;51.166;4.760;2023-04-25T03:56:13;7.30;99.90
27384;DHT22;14851;51.166;4.760;2023-04-25T03:58:40;7.30;99.90
27384;DHT22;14851;51.166;4.760;2023-04-25T04:01:06;7.30;99.90
27384;DHT22;14851;51.166;4.760;2023-04-25T04:03:36;7.30;99.90
27384;DHT22;14851;51.166;4.760;2023-04-25T04:06:05;7.20;99.90
27384;DHT22;14851;51.166;4.760;2023-04-25T04:08:40;7.20;99.90
27384;DHT22;14851;51.166;4.760;2023-04-25T04:11:06;7.20;99.90
27384;DHT22;14851;51.166;4.760;2023-04-25T04:13:32;7.20;99.90
27384;DHT22;14851;51.166;4.760;2023-04-25T04:15:59;7.20;99.90
27384;DHT22;14851;51.166;4.760;2023-04-25T04:18:25;7.20;99.90
27384;DHT22;14851;51.166;4.760;2023-04-25T04:20:52;7.30;99.90
27384;DHT22;14851;51.166;4.760;2023-04-25T04:23:19;7.20;99.90
27384;DHT22;14851;51.166;4.760;2023-04-25T04:25:46;7.20;99.90
27384;DHT22;14851;51.166;4.760;2023-04-25T04:28:32;7.30;99.90
27384;DHT22;14851;51.166;4.760;2023-04-25T04:31:06;7.20;99.90
27384;DHT22;14851;51.166;4.760;2023-04-25T04:33:33;7.30;99.90
27384;DHT22;14851;51.166;4.760;2023-04-25T04:36:03;7.20;99.90
27384;DHT22;14851;51.166;4.760;2023-04-25T04:38:30;7.20;99.90
27384;DHT22;14851;51.166;4.760;2023-04-25T04:41:00;7.20;99.90
27384;DHT22;14851;51.166;4.760;2023-04-25T04:43:44;7.20;99.90
27384;DHT22;14851;51.166;4.760;2023-04-25T04:46:23;7.20;99.90
27384;DHT22;14851;51.166;4.760;2023-04-25T04:49:11;7.20;99.90
27384;DHT22;14851;51.166;4.760;2023-04-25T04:51:49;7.20;99.90
27384;DHT22;14851;51.166;4.760;2023-04-25T04:54:37;7.20;99.90
27384;DHT22;14851;51.166;4.760;2023-04-25T04:57:27;7.20;99.90
27384;DHT22;14851;51.166;4.760;2023-04-25T05:00:22;7.20;99.90
27384;DHT22;14851;51.166;4.760;2023-04-25T05:03:07;7.20;99.90
27384;DHT22;14851;51.166;4.760;2023-04-25T05:05:48;7.30;99.90
27384;DHT22;14851;51.166;4.760;2023-04-25T05:08:32;7.30;99.90
27384;DHT22;14851;51.166;4.760;2023-04-25T05:11:19;7.30;99.90
27384;DHT22;14851;51.166;4.760;2023-04-25T05:13:59;7.30;99.90
27384;DHT22;14851;51.166;4.760;2023-04-25T05:16:55;7.30;99.90
27384;DHT22;14851;51.166;4.760;2023-04-25T05:19:49;7.30;99.90
27384;DHT22;14851;51.166;4.760;2023-04-25T05:22:38;7.30;99.90
27384;DHT22;14851;51.166;4.760;2023-04-25T05:25:34;7.30;99.90
27384;DHT22;14851;51.166;4.760;2023-04-25T05:28:15;7.30;99.90
27384;DHT22;14851;51.166;4.760;2023-04-25T05:30:56;7.30;99.90
27384;DHT22;14851;51.166;4.760;2023-04-25T05:33:35;7.30;99.90
27384;DHT22;14851;51.166;4.760;2023-04-25T05:36:02;7.30;99.90
27384;DHT22;14851;51.166;4.760;2023-04-25T05:38:28;7.40;99.90
27384;DHT22;14851;51.166;4.760;2023-04-25T05:41:04;7.40;99.90
27384;DHT22;14851;51.166;4.760;2023-04-25T05:43:53;7.40;99.90
27384;DHT22;14851;51.166;4.760;2023-04-25T05:46:48;7.40;99.90
27384;DHT22;14851;51.166;4.760;2023-04-25T05:49:33;7.40;99.90
27384;DHT22;14851;51.166;4.760;2023-04-25T05:52:23;7.40;99.90
27384;DHT22;14851;51.166;4.760;2023-04-25T05:55:07;7.40;99.90
27384;DHT22;14851;51.166;4.760;2023-04-25T05:57:35;7.50;99.90
27384;DHT22;14851;51.166;4.760;2023-04-25T06:00:04;7.50;99.90
27384;DHT22;14851;51.166;4.760;2023-04-25T06:02:43;7.50;99.90
27384;DHT22;14851;51.166;4.760;2023-04-25T06:05:12;7.50;99.90
27384;DHT22;14851;51.166;4.760;2023-04-25T06:07:39;7.60;99.90
27384;DHT22;14851;51.166;4.760;2023-04-25T06:10:05;7.60;99.90
27384;DHT22;14851;51.166;4.760;2023-04-25T06:12:33;7.60;99.90
27384;DHT22;14851;51.166;4.760;2023-04-25T06:15:03;7.70;99.90
27384;DHT22;14851;51.166;4.760;2023-04-25T06:17:30;7.70;99.90
27384;DHT22;14851;51.166;4.760;2023-04-25T06:19:59;7.80;99.90
27384;DHT22;14851;51.166;4.760;2023-04-25T06:22:25;7.80;99.90
27384;DHT22;14851;51.166;4.760;2023-04-25T06:24:51;7.80;99.90
27384;DHT22;14851;51.166;4.760;2023-04-25T06:27:17;7.90;99.90
27384;DHT22;14851;51.166;4.760;2023-04-25T06:29:43;7.90;99.90
27384;DHT22;14851;51.166;4.760;2023-04-25T06:32:09;7.90;99.90
27384;DHT22;14851;51.166;4.760;2023-04-25T06:34:37;7.90;99.90
27384;DHT22;14851;51.166;4.760;2023-04-25T06:37:05;7.90;99.90
27384;DHT22;14851;51.166;4.760;2023-04-25T06:39:33;7.90;99.90
27384;DHT22;14851;51.166;4.760;2023-04-25T06:41:59;8.00;99.90
27384;DHT22;14851;51.166;4.760;2023-04-25T06:44:48;8.00;99.90
27384;DHT22;14851;51.166;4.760;2023-04-25T06:47:14;8.00;99.90
27384;DHT22;14851;51.166;4.760;2023-04-25T06:49:42;8.00;99.90
27384;DHT22;14851;51.166;4.760;2023-04-25T06:52:09;8.10;99.90
27384;DHT22;14851;51.166;4.760;2023-04-25T06:54:36;8.10;99.90
27384;DHT22;14851;51.166;4.760;2023-04-25T06:57:15;8.10;99.90
27384;DHT22;14851;51.166;4.760;2023-04-25T06:59:40;8.20;99.90
27384;DHT22;14851;51.166;4.760;2023-04-25T07:02:10;8.20;99.90
27384;DHT22;14851;51.166;4.760;2023-04-25T07:04:39;8.20;99.90
27384;DHT22;14851;51.166;4.760;2023-04-25T07:07:11;8.20;99.90
27384;DHT22;14851;51.166;4.760;2023-04-25T07:09:48;8.20;99.90
27384;DHT22;14851;51.166;4.760;2023-04-25T07:12:16;8.20;99.90
27384;DHT22;14851;51.166;4.760;2023-04-25T07:14:43;8.20;99.90
27384;DHT22;14851;51.166;4.760;2023-04-25T07:17:12;8.20;99.90
27384;DHT22;14851;51.166;4.760;2023-04-25T07:19:38;8.20;99.90
27384;DHT22;14851;51.166;4.760;2023-04-25T07:22:07;8.30;99.90
27384;DHT22;14851;51.166;4.760;2023-04-25T07:24:34;8.30;99.90
27384;DHT22;14851;51.166;4.760;2023-04-25T07:27:00;8.40;99.90
27384;DHT22;14851;51.166;4.760;2023-04-25T07:29:35;8.40;99.90
27384;DHT22;14851;51.166;4.760;2023-04-25T07:32:03;8.40;99.90
27384;DHT22;14851;51.166;4.760;2023-04-25T07:34:33;8.40;99.90
27384;DHT22;14851;51.166;4.760;2023-04-25T07:37:02;8.40;99.90
27384;DHT22;14851;51.166;4.760;2023-04-25T07:39:36;8.40;99.90
27384;DHT22;14851;51.166;4.760;2023-04-25T07:42:03;8.40;99.90
27384;DHT22;14851;51.166;4.760;2023-04-25T07:44:29;8.40;99.90
27384;DHT22;14851;51.166;4.760;2023-04-25T07:47:08;8.40;99.90
27384;DHT22;14851;51.166;4.760;2023-04-25T07:49:37;8.40;99.90
27384;DHT22;14851;51.166;4.760;2023-04-25T07:52:04;8.40;99.90
27384;DHT22;14851;51.166;4.760;2023-04-25T07:54:33;8.50;99.90
27384;DHT22;14851;51.166;4.760;2023-04-25T07:57:05;8.50;99.90
27384;DHT22;14851;51.166;4.760;2023-04-25T07:59:38;8.50;99.90
27384;DHT22;14851;51.166;4.760;2023-04-25T08:02:05;8.50;99.90
27384;DHT22;14851;51.166;4.760;2023-04-25T08:04:31;8.60;99.90
27384;DHT22;14851;51.166;4.760;2023-04-25T08:07:04;8.60;99.90
27384;DHT22;14851;51.166;4.760;2023-04-25T08:09:37;8.70;99.90
27384;DHT22;14851;51.166;4.760;2023-04-25T08:12:07;8.70;99.90
27384;DHT22;14851;51.166;4.760;2023-04-25T08:14:33;8.70;99.90
27384;DHT22;14851;51.166;4.760;2023-04-25T08:17:03;8.70;99.90
27384;DHT22;14851;51.166;4.760;2023-04-25T08:19:32;8.70;99.90
27384;DHT22;14851;51.166;4.760;2023-04-25T08:21:58;8.70;99.90
27384;DHT22;14851;51.166;4.760;2023-04-25T08:24:31;8.80;99.90
27384;DHT22;14851;51.166;4.760;2023-04-25T08:26:57;8.90;99.90
27384;DHT22;14851;51.166;4.760;2023-04-25T08:29:26;9.00;99.90
27384;DHT22;14851;51.166;4.760;2023-04-25T08:31:54;9.10;99.90
27384;DHT22;14851;51.166;4.760;2023-04-25T08:34:20;9.20;99.90
27384;DHT22;14851;51.166;4.760;2023-04-25T08:36:48;9.30;99.90
27384;DHT22;14851;51.166;4.760;2023-04-25T08:39:24;9.30;99.90
27384;DHT22;14851;51.166;4.760;2023-04-25T08:42:29;9.40;99.90
27384;DHT22;14851;51.166;4.760;2023-04-25T08:44:57;9.40;99.90
27384;DHT22;14851;51.166;4.760;2023-04-25T08:47:30;9.40;99.90
27384;DHT22;14851;51.166;4.760;2023-04-25T08:50:02;9.40;99.90
27384;DHT22;14851;51.166;4.760;2023-04-25T08:52:45;9.40;99.90
27384;DHT22;14851;51.166;4.760;2023-04-25T08:55:15;9.30;99.90
27384;DHT22;14851;51.166;4.760;2023-04-25T08:57:44;9.10;99.90
27384;DHT22;14851;51.166;4.760;2023-04-25T09:00:12;9.00;99.90
27384;DHT22;14851;51.166;4.760;2023-04-25T09:02:40;8.90;99.90
27384;DHT22;14851;51.166;4.760;2023-04-25T09:05:08;8.90;99.90
27384;DHT22;14851;51.166;4.760;2023-04-25T09:07:36;8.90;99.90
27384;DHT22;14851;51.166;4.760;2023-04-25T09:10:03;8.90;99.90
27384;DHT22;14851;51.166;4.760;2023-04-25T09:12:35;8.90;99.90
27384;DHT22;14851;51.166;4.760;2023-04-25T09:15:12;8.90;99.90
27384;DHT22;14851;51.166;4.760;2023-04-25T09:17:59;9.00;99.90
27384;DHT22;14851;51.166;4.760;2023-04-25T09:20:33;9.10;99.90
27384;DHT22;14851;51.166;4.760;2023-04-25T09:23:06;9.20;99.90
27384;DHT22;14851;51.166;4.760;2023-04-25T09:25:36;9.30;99.90
27384;DHT22;14851;51.166;4.760;2023-04-25T09:28:07;9.40;99.90
27384;DHT22;14851;51.166;4.760;2023-04-25T09:30:34;9.40;99.90
27384;DHT22;14851;51.166;4.760;2023-04-25T09:33:07;9.50;99.90
27384;DHT22;14851;51.166;4.760;2023-04-25T09:35:38;9.40;99.90
27384;DHT22;14851;51.166;4.760;2023-04-25T09:38:15;9.40;99.90
27384;DHT22;14851;51.166;4.760;2023-04-25T09:41:10;9.40;99.90
27384;DHT22;14851;51.166;4.760;2023-04-25T09:43:45;9.40;99.90
27384;DHT22;14851;51.166;4.760;2023-04-25T09:46:12;9.40;99.90
27384;DHT22;14851;51.166;4.760;2023-04-25T09:48:50;9.50;99.90
27384;DHT22;14851;51.166;4.760;2023-04-25T09:51:25;9.50;99.90
27384;DHT22;14851;51.166;4.760;2023-04-25T09:53:54;9.60;99.90
27384;DHT22;14851;51.166;4.760;2023-04-25T09:56:48;9.50;99.90
27384;DHT22;14851;51.166;4.760;2023-04-25T09:59:21;9.60;99.90
27384;DHT22;14851;51.166;4.760;2023-04-25T10:01:52;9.60;99.90
27384;DHT22;14851;51.166;4.760;2023-04-25T10:04:28;9.60;99.90
27384;DHT22;14851;51.166;4.760;2023-04-25T10:07:05;9.70;99.90
27384;DHT22;14851;51.166;4.760;2023-04-25T10:09:32;9.70;99.90
27384;DHT22;14851;51.166;4.760;2023-04-25T10:12:02;9.80;99.90
27384;DHT22;14851;51.166;4.760;2023-04-25T10:14:30;9.90;99.90
27384;DHT22;14851;51.166;4.760;2023-04-25T10:16:57;9.90;99.90
27384;DHT22;14851;51.166;4.760;2023-04-25T10:19:24;9.90;99.90
27384;DHT22;14851;51.166;4.760;2023-04-25T10:24:27;10.00;99.90
27384;DHT22;14851;51.166;4.760;2023-04-25T10:26:53;10.10;99.90
27384;DHT22;14851;51.166;4.760;2023-04-25T10:29:24;10.10;99.90
27384;DHT22;14851;51.166;4.760;2023-04-25T10:31:52;10.20;99.90
27384;DHT22;14851;51.166;4.760;2023-04-25T10:34:37;10.20;99.90
27384;DHT22;14851;51.166;4.760;2023-04-25T10:37:04;10.40;99.90
27384;DHT22;14851;51.166;4.760;2023-04-25T10:39:30;10.40;99.90
27384;DHT22;14851;51.166;4.760;2023-04-25T10:41:57;10.50;99.90
27384;DHT22;14851;51.166;4.760;2023-04-25T10:44:30;10.50;99.90
27384;DHT22;14851;51.166;4.760;2023-04-25T10:47:00;10.50;99.90
27384;DHT22;14851;51.166;4.760;2023-04-25T10:49:30;10.50;99.90
27384;DHT22;14851;51.166;4.760;2023-04-25T10:52:25;10.50;99.90
27384;DHT22;14851;51.166;4.760;2023-04-25T10:54:55;10.50;99.90
27384;DHT22;14851;51.166;4.760;2023-04-25T11:00:18;10.40;99.90
27384;DHT22;14851;51.166;4.760;2023-04-25T11:02:52;10.30;99.90
27384;DHT22;14851;51.166;4.760;2023-04-25T11:05:35;10.30;99.90
27384;DHT22;14851;51.166;4.760;2023-04-25T11:08:02;10.20;99.90
27384;DHT22;14851;51.166;4.760;2023-04-25T11:10:31;10.20;99.90
27384;DHT22;14851;51.166;4.760;2023-04-25T11:12:57;10.30;99.90
27384;DHT22;14851;51.166;4.760;2023-04-25T11:15:26;10.40;99.90
27384;DHT22;14851;51.166;4.760;2023-04-25T11:17:52;10.50;99.90
27384;DHT22;14851;51.166;4.760;2023-04-25T11:20:19;10.60;99.90
27384;DHT22;14851;51.166;4.760;2023-04-25T11:22:46;10.70;99.90
27384;DHT22;14851;51.166;4.760;2023-04-25T11:25:14;10.80;99.90
27384;DHT22;14851;51.166;4.760;2023-04-25T11:27:53;10.80;99.90
27384;DHT22;14851;51.166;4.760;2023-04-25T11:30:20;11.00;99.90
27384;DHT22;14851;51.166;4.760;2023-04-25T11:32:46;11.00;99.90
27384;DHT22;14851;51.166;4.760;2023-04-25T11:35:13;11.10;99.90
27384;DHT22;14851;51.166;4.760;2023-04-25T11:37:40;11.20;99.90
27384;DHT22;14851;51.166;4.760;2023-04-25T11:40:07;11.10;99.90
27384;DHT22;14851;51.166;4.760;2023-04-25T11:42:44;11.10;99.90
27384;DHT22;14851;51.166;4.760;2023-04-25T11:45:11;11.10;99.90
27384;DHT22;14851;51.166;4.760;2023-04-25T11:47:37;11.20;99.90
27384;DHT22;14851;51.166;4.760;2023-04-25T11:50:05;11.30;99.90
27384;DHT22;14851;51.166;4.760;2023-04-25T11:52:49;11.20;99.90
27384;DHT22;14851;51.166;4.760;2023-04-25T11:55:16;11.20;99.90
27384;DHT22;14851;51.166;4.760;2023-04-25T11:57:44;11.00;99.90
27384;DHT22;14851;51.166;4.760;2023-04-25T12:00:17;10.90;99.90
27384;DHT22;14851;51.166;4.760;2023-04-25T12:02:51;10.90;99.90
27384;DHT22;14851;51.166;4.760;2023-04-25T12:05:17;10.90;99.90
27384;DHT22;14851;51.166;4.760;2023-04-25T12:07:43;11.00;99.90
27384;DHT22;14851;51.166;4.760;2023-04-25T12:10:11;11.10;99.90
27384;DHT22;14851;51.166;4.760;2023-04-25T12:12:38;11.10;99.90
27384;DHT22;14851;51.166;4.760;2023-04-25T12:15:13;11.20;99.90
27384;DHT22;14851;51.166;4.760;2023-04-25T12:17:48;11.20;99.90
27384;DHT22;14851;51.166;4.760;2023-04-25T12:20:21;11.30;99.90
27384;DHT22;14851;51.166;4.760;2023-04-25T12:22:49;11.40;99.90
27384;DHT22;14851;51.166;4.760;2023-04-25T12:33:19;11.30;99.90
27384;DHT22;14851;51.166;4.760;2023-04-25T12:35:45;11.20;99.90
27384;DHT22;14851;51.166;4.760;2023-04-25T12:38:24;11.20;99.90
27384;DHT22;14851;51.166;4.760;2023-04-25T12:40:53;11.10;99.90
27384;DHT22;14851;51.166;4.760;2023-04-25T12:43:20;11.10;99.90
27384;DHT22;14851;51.166;4.760;2023-04-25T12:45:51;11.10;99.90
27384;DHT22;14851;51.166;4.760;2023-04-25T12:48:17;11.10;99.90
27384;DHT22;14851;51.166;4.760;2023-04-25T12:50:48;11.10;99.90
27384;DHT22;14851;51.166;4.760;2023-04-25T12:53:21;11.20;99.90
27384;DHT22;14851;51.166;4.760;2023-04-25T12:55:47;11.30;99.90
27384;DHT22;14851;51.166;4.760;2023-04-25T12:58:15;11.30;99.90
27384;DHT22;14851;51.166;4.760;2023-04-25T13:00:41;11.40;99.90
27384;DHT22;14851;51.166;4.760;2023-04-25T13:03:08;11.40;99.90
27384;DHT22;14851;51.166;4.760;2023-04-25T13:05:34;11.40;99.90
27384;DHT22;14851;51.166;4.760;2023-04-25T13:08:01;11.50;99.90
27384;DHT22;14851;51.166;4.760;2023-04-25T13:10:26;11.50;99.90
27384;DHT22;14851;51.166;4.760;2023-04-25T13:12:52;11.50;99.90
27384;DHT22;14851;51.166;4.760;2023-04-25T13:15:21;11.60;99.90
27384;DHT22;14851;51.166;4.760;2023-04-25T13:17:47;11.60;99.90
27384;DHT22;14851;51.166;4.760;2023-04-25T13:20:15;11.60;99.90
27384;DHT22;14851;51.166;4.760;2023-04-25T13:22:42;11.60;99.90
27384;DHT22;14851;51.166;4.760;2023-04-25T13:25:08;11.70;99.90
27384;DHT22;14851;51.166;4.760;2023-04-25T13:27:35;11.80;99.90
27384;DHT22;14851;51.166;4.760;2023-04-25T13:30:05;11.90;99.90
27384;DHT22;14851;51.166;4.760;2023-04-25T13:32:35;12.00;99.90
27384;DHT22;14851;51.166;4.760;2023-04-25T13:35:08;11.90;99.90
27384;DHT22;14851;51.166;4.760;2023-04-25T13:37:35;11.90;99.90
27384;DHT22;14851;51.166;4.760;2023-04-25T13:40:06;11.80;99.90
27384;DHT22;14851;51.166;4.760;2023-04-25T13:42:34;11.80;99.90
27384;DHT22;14851;51.166;4.760;2023-04-25T13:45:01;11.70;99.90
27384;DHT22;14851;51.166;4.760;2023-04-25T13:47:27;11.70;99.90
27384;DHT22;14851;51.166;4.760;2023-04-25T13:49:53;11.70;99.90
27384;DHT22;14851;51.166;4.760;2023-04-25T13:52:20;11.70;99.90
27384;DHT22;14851;51.166;4.760;2023-04-25T13:54:46;11.60;99.90
27384;DHT22;14851;51.166;4.760;2023-04-25T13:57:12;11.60;99.90
27384;DHT22;14851;51.166;4.760;2023-04-25T13:59:39;11.60;99.90
27384;DHT22;14851;51.166;4.760;2023-04-25T14:02:08;11.60;99.90
27384;DHT22;14851;51.166;4.760;2023-04-25T14:04:34;11.70;99.90
27384;DHT22;14851;51.166;4.760;2023-04-25T14:07:00;11.70;99.90
27384;DHT22;14851;51.166;4.760;2023-04-25T14:09:27;11.70;99.90
27384;DHT22;14851;51.166;4.760;2023-04-25T14:11:54;11.70;99.90
27384;DHT22;14851;51.166;4.760;2023-04-25T14:14:21;11.70;99.90
27384;DHT22;14851;51.166;4.760;2023-04-25T14:16:48;11.60;99.90
27384;DHT22;14851;51.166;4.760;2023-04-25T14:19:20;11.60;99.90
27384;DHT22;14851;51.166;4.760;2023-04-25T14:21:47;11.60;99.90
27384;DHT22;14851;51.166;4.760;2023-04-25T14:24:13;11.60;99.90
27384;DHT22;14851;51.166;4.760;2023-04-25T14:26:39;11.70;99.90
27384;DHT22;14851;51.166;4.760;2023-04-25T14:29:06;11.70;99.90
27384;DHT22;14851;51.166;4.760;2023-04-25T14:31:35;11.80;99.90
27384;DHT22;14851;51.166;4.760;2023-04-25T14:34:04;11.90;99.90
27384;DHT22;14851;51.166;4.760;2023-04-25T14:36:36;12.10;99.90
27384;DHT22;14851;51.166;4.760;2023-04-25T14:39:02;12.20;99.90
27384;DHT22;14851;51.166;4.760;2023-04-25T14:41:30;12.20;99.90
27384;DHT22;14851;51.166;4.760;2023-04-25T14:43:56;12.20;99.90
27384;DHT22;14851;51.166;4.760;2023-04-25T14:46:23;12.20;99.90
27384;DHT22;14851;51.166;4.760;2023-04-25T14:48:49;12.20;99.90
27384;DHT22;14851;51.166;4.760;2023-04-25T14:51:17;12.30;99.90
27384;DHT22;14851;51.166;4.760;2023-04-25T14:53:43;12.30;99.90
27384;DHT22;14851;51.166;4.760;2023-04-25T14:56:10;12.40;99.90
27384;DHT22;14851;51.166;4.760;2023-04-25T14:58:36;12.30;99.90
27384;DHT22;14851;51.166;4.760;2023-04-25T15:01:02;12.20;99.90
27384;DHT22;14851;51.166;4.760;2023-04-25T15:03:31;12.20;99.90
27384;DHT22;14851;51.166;4.760;2023-04-25T15:05:59;12.10;99.90
27384;DHT22;14851;51.166;4.760;2023-04-25T15:08:25;12.10;99.90
27384;DHT22;14851;51.166;4.760;2023-04-25T15:10:54;12.10;99.90
27384;DHT22;14851;51.166;4.760;2023-04-25T15:13:22;12.20;99.90
27384;DHT22;14851;51.166;4.760;2023-04-25T15:15:48;12.20;99.90
27384;DHT22;14851;51.166;4.760;2023-04-25T15:18:21;12.20;99.90
27384;DHT22;14851;51.166;4.760;2023-04-25T15:20:48;12.10;99.90
27384;DHT22;14851;51.166;4.760;2023-04-25T15:23:14;12.10;99.90
27384;DHT22;14851;51.166;4.760;2023-04-25T15:25:40;12.00;99.90
27384;DHT22;14851;51.166;4.760;2023-04-25T15:28:08;12.00;99.90
27384;DHT22;14851;51.166;4.760;2023-04-25T15:30:36;11.90;99.90
27384;DHT22;14851;51.166;4.760;2023-04-25T15:33:02;11.80;99.90
27384;DHT22;14851;51.166;4.760;2023-04-25T15:35:28;11.80;99.90
27384;DHT22;14851;51.166;4.760;2023-04-25T15:37:54;11.70;99.90
27384;DHT22;14851;51.166;4.760;2023-04-25T15:40:20;11.70;99.90
27384;DHT22;14851;51.166;4.760;2023-04-25T15:42:50;11.70;99.90
27384;DHT22;14851;51.166;4.760;2023-04-25T15:45:18;11.70;99.90
27384;DHT22;14851;51.166;4.760;2023-04-25T15:47:46;11.80;99.90
27384;DHT22;14851;51.166;4.760;2023-04-25T15:50:15;11.70;99.90
27384;DHT22;14851;51.166;4.760;2023-04-25T15:52:41;11.70;99.90
27384;DHT22;14851;51.166;4.760;2023-04-25T15:55:08;11.60;99.90
27384;DHT22;14851;51.166;4.760;2023-04-25T15:57:35;11.50;99.90
27384;DHT22;14851;51.166;4.760;2023-04-25T16:00:03;11.50;99.90
27384;DHT22;14851;51.166;4.760;2023-04-25T16:02:37;11.40;99.90
27384;DHT22;14851;51.166;4.760;2023-04-25T16:05:04;11.40;99.90
27384;DHT22;14851;51.166;4.760;2023-04-25T16:07:36;11.40;99.90
27384;DHT22;14851;51.166;4.760;2023-04-25T16:10:04;11.50;99.90
27384;DHT22;14851;51.166;4.760;2023-04-25T16:12:31;11.50;99.90